sensor_id;sensor_type;location;lat;lon;timestamp;temperature;humidity
37281;DHT22;23169;41.804;12.596;2023-08-01T00:00:28;24.30;99.90
37281;DHT22;23169;41.804;12.596;2023-08-01T00:02:58;24.30;99.90
37281;DHT22;23169;41.804;12.596;2023-08-01T00:07:57;24.40;99.90
37281;DHT22;23169;41.804;12.596;2023-08-01T00:10:25;24.40;99.90
37281;DHT22;23169;41.804;12.596;2023-08-01T00:12:54;24.40;99.30
37281;DHT22;23169;41.804;12.596;2023-08-01T00:15:26;24.30;96.80
37281;DHT22;23169;41.804;12.596;2023-08-01T00:17:54;24.30;99.90
37281;DHT22;23169;41.804;12.596;2023-08-01T00:20:24;24.20;96.00
37281;DHT22;23169;41.804;12.596;2023-08-01T00:22:52;24.20;96.60
37281;DHT22;23169;41.804;12.596;2023-08-01T00:25:21;24.20;97.40
37281;DHT22;23169;41.804;12.596;2023-08-01T00:27:50;24.20;95.50
37281;DHT22;23169;41.804;12.596;2023-08-01T00:30:19;24.20;96.50
37281;DHT22;23169;41.804;12.596;2023-08-01T00:35:17;24.20;91.10
37281;DHT22;23169;41.804;12.596;2023-08-01T00:37:47;24.20;95.20
37281;DHT22;23169;41.804;12.596;2023-08-01T00:40:16;24.20;96.10
37281;DHT22;23169;41.804;12.596;2023-08-01T00:42:46;24.20;98.00
37281;DHT22;23169;41.804;12.596;2023-08-01T00:45:20;24.20;99.90
37281;DHT22;23169;41.804;12.596;2023-08-01T00:47:54;24.10;99.90
37281;DHT22;23169;41.804;12.596;2023-08-01T00:50:27;24.10;99.90
37281;DHT22;23169;41.804;12.596;2023-08-01T00:52:56;24.20;99.90
37281;DHT22;23169;41.804;12.596;2023-08-01T00:55:26;24.10;99.90
37281;DHT22;23169;41.804;12.596;2023-08-01T00:57:55;24.10;99.90
37281;DHT22;23169;41.804;12.596;2023-08-01T01:00:27;24.10;99.90
37281;DHT22;23169;41.804;12.596;2023-08-01T01:02:56;24.00;99.90
37281;DHT22;23169;41.804;12.596;2023-08-01T01:05:25;24.00;99.90
37281;DHT22;23169;41.804;12.596;2023-08-01T01:07:55;24.00;99.90
37281;DHT22;23169;41.804;12.596;2023-08-01T01:10:24;24.00;99.90
37281;DHT22;23169;41.804;12.596;2023-08-01T01:12:52;24.00;99.90
37281;DHT22;23169;41.804;12.596;2023-08-01T01:15:21;24.00;99.90
37281;DHT22;23169;41.804;12.596;2023-08-01T01:17:50;24.00;99.90
37281;DHT22;23169;41.804;12.596;2023-08-01T01:20:23;24.00;99.90
37281;DHT22;23169;41.804;12.596;2023-08-01T01:22:55;24.00;99.90
37281;DHT22;23169;41.804;12.596;2023-08-01T01:25:25;24.00;99.90
37281;DHT22;23169;41.804;12.596;2023-08-01T01:27:54;24.00;99.90
37281;DHT22;23169;41.804;12.596;2023-08-01T01:30:23;24.00;99.90
37281;DHT22;23169;41.804;12.596;2023-08-01T01:35:21;24.10;99.90
37281;DHT22;23169;41.804;12.596;2023-08-01T01:37:51;24.10;99.90
37281;DHT22;23169;41.804;12.596;2023-08-01T01:40:20;24.10;99.90
37281;DHT22;23169;41.804;12.596;2023-08-01T01:42:49;24.10;99.90
37281;DHT22;23169;41.804;12.596;2023-08-01T01:45:18;24.20;99.90
37281;DHT22;23169;41.804;12.596;2023-08-01T01:47:47;24.10;99.90
37281;DHT22;23169;41.804;12.596;2023-08-01T01:50:16;24.10;99.90
37281;DHT22;23169;41.804;12.596;2023-08-01T01:52:46;24.10;99.90
37281;DHT22;23169;41.804;12.596;2023-08-01T01:55:15;24.10;99.90
37281;DHT22;23169;41.804;12.596;2023-08-01T01:57:45;24.00;99.90
37281;DHT22;23169;41.804;12.596;2023-08-01T02:00:14;23.90;99.90
37281;DHT22;23169;41.804;12.596;2023-08-01T02:02:42;23.90;99.90
37281;DHT22;23169;41.804;12.596;2023-08-01T02:05:11;23.80;99.90
37281;DHT22;23169;41.804;12.596;2023-08-01T02:07:41;23.80;99.90
37281;DHT22;23169;41.804;12.596;2023-08-01T02:10:09;23.80;99.90
37281;DHT22;23169;41.804;12.596;2023-08-01T02:12:39;23.70;99.90
37281;DHT22;23169;41.804;12.596;2023-08-01T02:15:08;23.70;99.90
37281;DHT22;23169;41.804;12.596;2023-08-01T02:17:38;23.70;99.90
37281;DHT22;23169;41.804;12.596;2023-08-01T02:20:08;23.70;99.90
37281;DHT22;23169;41.804;12.596;2023-08-01T02:22:37;23.70;99.90
37281;DHT22;23169;41.804;12.596;2023-08-01T02:25:06;23.70;99.90
37281;DHT22;23169;41.804;12.596;2023-08-01T02:27:36;23.70;99.90
37281;DHT22;23169;41.804;12.596;2023-08-01T02:30:07;23.70;99.90
37281;DHT22;23169;41.804;12.596;2023-08-01T02:32:39;23.70;99.90
37281;DHT22;23169;41.804;12.596;2023-08-01T02:35:08;23.70;99.90
37281;DHT22;23169;41.804;12.596;2023-08-01T02:37:38;23.70;99.90
37281;DHT22;23169;41.804;12.596;2023-08-01T02:40:08;23.70;99.90
37281;DHT22;23169;41.804;12.596;2023-08-01T02:42:37;23.70;99.90
37281;DHT22;23169;41.804;12.596;2023-08-01T02:45:07;23.70;99.90
37281;DHT22;23169;41.804;12.596;2023-08-01T02:47:37;23.70;99.90
37281;DHT22;23169;41.804;12.596;2023-08-01T02:50:06;23.70;99.90
37281;DHT22;23169;41.804;12.596;2023-08-01T02:52:36;23.70;99.90
37281;DHT22;23169;41.804;12.596;2023-08-01T02:55:06;23.80;99.90
37281;DHT22;23169;41.804;12.596;2023-08-01T02:57:36;23.80;99.90
37281;DHT22;23169;41.804;12.596;2023-08-01T03:00:06;23.90;99.90
37281;DHT22;23169;41.804;12.596;2023-08-01T03:02:43;23.90;99.90
37281;DHT22;23169;41.804;12.596;2023-08-01T03:05:18;23.90;99.90
37281;DHT22;23169;41.804;12.596;2023-08-01T03:07:59;24.00;99.90
37281;DHT22;23169;41.804;12.596;2023-08-01T03:10:48;24.00;99.90
37281;DHT22;23169;41.804;12.596;2023-08-01T03:13:26;23.90;99.90
37281;DHT22;23169;41.804;12.596;2023-08-01T03:15:57;23.80;99.90
37281;DHT22;23169;41.804;12.596;2023-08-01T03:18:29;23.50;99.90
37281;DHT22;23169;41.804;12.596;2023-08-01T03:20:58;23.80;99.90
37281;DHT22;23169;41.804;12.596;2023-08-01T03:23:27;23.90;99.90
37281;DHT22;23169;41.804;12.596;2023-08-01T03:25:56;23.90;99.90
37281;DHT22;23169;41.804;12.596;2023-08-01T03:28:26;23.90;99.90
37281;DHT22;23169;41.804;12.596;2023-08-01T03:30:55;23.90;99.90
37281;DHT22;23169;41.804;12.596;2023-08-01T03:33:25;23.80;99.90
37281;DHT22;23169;41.804;12.596;2023-08-01T03:35:54;23.80;99.90
37281;DHT22;23169;41.804;12.596;2023-08-01T03:38:23;23.70;99.90
37281;DHT22;23169;41.804;12.596;2023-08-01T03:40:51;23.70;99.90
37281;DHT22;23169;41.804;12.596;2023-08-01T03:43:20;23.70;99.90
37281;DHT22;23169;41.804;12.596;2023-08-01T03:45:52;23.60;99.90
37281;DHT22;23169;41.804;12.596;2023-08-01T03:48:21;23.60;99.90
37281;DHT22;23169;41.804;12.596;2023-08-01T03:50:50;23.50;99.90
37281;DHT22;23169;41.804;12.596;2023-08-01T03:53:20;23.50;99.90
37281;DHT22;23169;41.804;12.596;2023-08-01T03:55:49;23.50;99.90
37281;DHT22;23169;41.804;12.596;2023-08-01T03:58:19;23.50;99.90
37281;DHT22;23169;41.804;12.596;2023-08-01T04:00:47;23.50;99.90
37281;DHT22;23169;41.804;12.596;2023-08-01T04:03:16;23.50;99.90
37281;DHT22;23169;41.804;12.596;2023-08-01T04:05:45;23.50;99.90
37281;DHT22;23169;41.804;12.596;2023-08-01T04:08:14;23.50;99.90
37281;DHT22;23169;41.804;12.596;2023-08-01T04:10:44;23.40;99.90
37281;DHT22;23169;41.804;12.596;2023-08-01T04:13:13;23.40;99.90
37281;DHT22;23169;41.804;12.596;2023-08-01T04:15:41;23.40;99.90
37281;DHT22;23169;41.804;12.596;2023-08-01T04:18:10;23.40;99.90
37281;DHT22;23169;41.804;12.596;2023-08-01T04:23:10;23.40;99.90
37281;DHT22;23169;41.804;12.596;2023-08-01T04:25:40;23.30;99.90
37281;DHT22;23169;41.804;12.596;2023-08-01T04:28:09;23.30;99.90
37281;DHT22;23169;41.804;12.596;2023-08-01T04:30:38;23.30;99.90
37281;DHT22;23169;41.804;12.596;2023-08-01T04:35:38;23.40;99.90
37281;DHT22;23169;41.804;12.596;2023-08-01T04:38:07;23.30;99.90
37281;DHT22;23169;41.804;12.596;2023-08-01T04:40:41;23.20;99.90
37281;DHT22;23169;41.804;12.596;2023-08-01T04:43:11;23.30;99.90
37281;DHT22;23169;41.804;12.596;2023-08-01T04:45:44;23.20;99.90
37281;DHT22;23169;41.804;12.596;2023-08-01T04:48:14;23.30;99.90
37281;DHT22;23169;41.804;12.596;2023-08-01T04:50:43;23.30;99.90
37281;DHT22;23169;41.804;12.596;2023-08-01T04:53:13;23.30;99.90
37281;DHT22;23169;41.804;12.596;2023-08-01T04:55:42;23.30;99.90
37281;DHT22;23169;41.804;12.596;2023-08-01T04:58:10;23.30;99.90
37281;DHT22;23169;41.804;12.596;2023-08-01T05:00:42;23.40;99.90
37281;DHT22;23169;41.804;12.596;2023-08-01T05:03:13;23.30;99.90
37281;DHT22;23169;41.804;12.596;2023-08-01T05:05:42;23.40;99.90
37281;DHT22;23169;41.804;12.596;2023-08-01T05:10:41;23.40;99.90
37281;DHT22;23169;41.804;12.596;2023-08-01T05:15:40;23.30;99.90
37281;DHT22;23169;41.804;12.596;2023-08-01T05:18:09;23.40;99.90
37281;DHT22;23169;41.804;12.596;2023-08-01T05:20:38;23.50;99.90
37281;DHT22;23169;41.804;12.596;2023-08-01T05:23:06;23.50;99.90
37281;DHT22;23169;41.804;12.596;2023-08-01T05:25:35;23.60;99.90
37281;DHT22;23169;41.804;12.596;2023-08-01T05:28:04;23.60;99.90
37281;DHT22;23169;41.804;12.596;2023-08-01T05:30:36;23.70;99.90
37281;DHT22;23169;41.804;12.596;2023-08-01T05:35:34;23.80;99.90
37281;DHT22;23169;41.804;12.596;2023-08-01T05:38:03;24.00;99.90
37281;DHT22;23169;41.804;12.596;2023-08-01T05:40:32;24.10;99.90
37281;DHT22;23169;41.804;12.596;2023-08-01T05:43:01;24.20;99.90
37281;DHT22;23169;41.804;12.596;2023-08-01T05:45:30;24.30;99.90
37281;DHT22;23169;41.804;12.596;2023-08-01T05:48:00;24.50;94.00
37281;DHT22;23169;41.804;12.596;2023-08-01T05:50:30;24.60;92.20
37281;DHT22;23169;41.804;12.596;2023-08-01T05:52:58;24.70;86.50
37281;DHT22;23169;41.804;12.596;2023-08-01T05:55:28;24.80;72.60
37281;DHT22;23169;41.804;12.596;2023-08-01T06:00:27;24.90;55.10
37281;DHT22;23169;41.804;12.596;2023-08-01T06:02:55;24.90;62.20
37281;DHT22;23169;41.804;12.596;2023-08-01T06:05:24;25.00;59.20
37281;DHT22;23169;41.804;12.596;2023-08-01T06:07:53;25.00;55.60
37281;DHT22;23169;41.804;12.596;2023-08-01T06:10:22;25.10;51.50
37281;DHT22;23169;41.804;12.596;2023-08-01T06:12:50;25.20;46.00
37281;DHT22;23169;41.804;12.596;2023-08-01T06:15:19;25.30;45.50
37281;DHT22;23169;41.804;12.596;2023-08-01T06:17:51;25.30;42.00
37281;DHT22;23169;41.804;12.596;2023-08-01T06:20:19;25.40;40.80
37281;DHT22;23169;41.804;12.596;2023-08-01T06:22:48;25.50;38.20
37281;DHT22;23169;41.804;12.596;2023-08-01T06:25:18;25.60;35.80
37281;DHT22;23169;41.804;12.596;2023-08-01T06:27:48;25.60;34.30
37281;DHT22;23169;41.804;12.596;2023-08-01T06:30:17;25.60;34.00
37281;DHT22;23169;41.804;12.596;2023-08-01T06:32:46;25.70;32.60
37281;DHT22;23169;41.804;12.596;2023-08-01T06:35:15;25.80;31.90
37281;DHT22;23169;41.804;12.596;2023-08-01T06:37:44;25.80;31.70
37281;DHT22;23169;41.804;12.596;2023-08-01T06:40:13;25.90;30.90
37281;DHT22;23169;41.804;12.596;2023-08-01T06:42:44;26.00;29.30
37281;DHT22;23169;41.804;12.596;2023-08-01T06:45:13;26.10;26.90
37281;DHT22;23169;41.804;12.596;2023-08-01T06:47:42;26.20;25.40
37281;DHT22;23169;41.804;12.596;2023-08-01T06:50:10;26.30;21.40
37281;DHT22;23169;41.804;12.596;2023-08-01T06:52:39;26.40;18.10
37281;DHT22;23169;41.804;12.596;2023-08-01T06:55:08;26.50;16.30
37281;DHT22;23169;41.804;12.596;2023-08-01T06:57:37;26.60;11.70
37281;DHT22;23169;41.804;12.596;2023-08-01T07:00:06;26.60;16.90
37281;DHT22;23169;41.804;12.596;2023-08-01T07:02:35;26.70;2.60
37281;DHT22;23169;41.804;12.596;2023-08-01T07:05:04;26.80;1.00
37281;DHT22;23169;41.804;12.596;2023-08-01T07:07:34;26.80;1.00
37281;DHT22;23169;41.804;12.596;2023-08-01T07:10:05;26.80;1.00
37281;DHT22;23169;41.804;12.596;2023-08-01T07:12:35;26.90;1.00
37281;DHT22;23169;41.804;12.596;2023-08-01T07:15:04;27.10;1.00
37281;DHT22;23169;41.804;12.596;2023-08-01T07:17:33;27.20;1.00
37281;DHT22;23169;41.804;12.596;2023-08-01T07:20:01;27.30;1.00
37281;DHT22;23169;41.804;12.596;2023-08-01T07:22:30;27.40;1.00
37281;DHT22;23169;41.804;12.596;2023-08-01T07:24:59;27.40;1.00
37281;DHT22;23169;41.804;12.596;2023-08-01T07:27:29;27.40;1.00
37281;DHT22;23169;41.804;12.596;2023-08-01T07:29:57;27.50;1.00
37281;DHT22;23169;41.804;12.596;2023-08-01T07:32:26;27.60;1.00
37281;DHT22;23169;41.804;12.596;2023-08-01T07:34:55;27.50;1.00
37281;DHT22;23169;41.804;12.596;2023-08-01T07:37:23;27.60;1.00
37281;DHT22;23169;41.804;12.596;2023-08-01T07:39:52;27.70;1.00
37281;DHT22;23169;41.804;12.596;2023-08-01T07:42:22;27.80;1.00
37281;DHT22;23169;41.804;12.596;2023-08-01T07:44:52;27.70;1.00
37281;DHT22;23169;41.804;12.596;2023-08-01T07:47:21;27.80;1.00
37281;DHT22;23169;41.804;12.596;2023-08-01T07:49:51;27.80;1.00
37281;DHT22;23169;41.804;12.596;2023-08-01T07:54:49;27.80;1.00
37281;DHT22;23169;41.804;12.596;2023-08-01T07:57:20;28.00;1.00
37281;DHT22;23169;41.804;12.596;2023-08-01T07:59:49;27.90;1.00
37281;DHT22;23169;41.804;12.596;2023-08-01T08:02:17;28.00;1.00
37281;DHT22;23169;41.804;12.596;2023-08-01T08:04:46;27.90;1.00
37281;DHT22;23169;41.804;12.596;2023-08-01T08:07:15;28.00;1.00
37281;DHT22;23169;41.804;12.596;2023-08-01T08:09:47;28.10;1.00
37281;DHT22;23169;41.804;12.596;2023-08-01T08:12:16;28.00;1.00
37281;DHT22;23169;41.804;12.596;2023-08-01T08:14:45;27.80;1.00
37281;DHT22;23169;41.804;12.596;2023-08-01T08:17:14;27.90;1.00
37281;DHT22;23169;41.804;12.596;2023-08-01T08:19:44;27.90;1.00
37281;DHT22;23169;41.804;12.596;2023-08-01T08:22:14;27.90;1.00
37281;DHT22;23169;41.804;12.596;2023-08-01T08:27:13;28.10;1.00
37281;DHT22;23169;41.804;12.596;2023-08-01T08:29:44;28.20;1.00
37281;DHT22;23169;41.804;12.596;2023-08-01T08:32:13;28.20;1.00
37281;DHT22;23169;41.804;12.596;2023-08-01T08:34:44;28.30;1.00
37281;DHT22;23169;41.804;12.596;2023-08-01T08:37:13;28.40;1.00
37281;DHT22;23169;41.804;12.596;2023-08-01T08:39:42;28.40;1.00
37281;DHT22;23169;41.804;12.596;2023-08-01T08:42:12;28.50;1.00
37281;DHT22;23169;41.804;12.596;2023-08-01T08:44:44;28.80;1.00
37281;DHT22;23169;41.804;12.596;2023-08-01T08:47:17;28.80;1.00
37281;DHT22;23169;41.804;12.596;2023-08-01T08:49:49;28.80;1.00
37281;DHT22;23169;41.804;12.596;2023-08-01T08:52:18;28.90;1.00
37281;DHT22;23169;41.804;12.596;2023-08-01T08:54:49;28.90;1.00
37281;DHT22;23169;41.804;12.596;2023-08-01T08:57:20;28.80;1.00
37281;DHT22;23169;41.804;12.596;2023-08-01T08:59:52;28.90;1.00
37281;DHT22;23169;41.804;12.596;2023-08-01T09:02:21;29.00;1.00
37281;DHT22;23169;41.804;12.596;2023-08-01T09:04:50;28.90;1.00
37281;DHT22;23169;41.804;12.596;2023-08-01T09:07:23;29.00;1.00
37281;DHT22;23169;41.804;12.596;2023-08-01T09:09:53;29.10;1.00
37281;DHT22;23169;41.804;12.596;2023-08-01T09:12:22;29.10;1.00
37281;DHT22;23169;41.804;12.596;2023-08-01T09:14:51;29.10;1.00
37281;DHT22;23169;41.804;12.596;2023-08-01T09:17:20;29.20;1.00
37281;DHT22;23169;41.804;12.596;2023-08-01T09:19:55;29.40;1.00
37281;DHT22;23169;41.804;12.596;2023-08-01T09:22:24;29.50;1.00
37281;DHT22;23169;41.804;12.596;2023-08-01T09:24:53;29.60;1.00
37281;DHT22;23169;41.804;12.596;2023-08-01T09:27:22;29.70;1.00
37281;DHT22;23169;41.804;12.596;2023-08-01T09:30:13;29.60;1.00
37281;DHT22;23169;41.804;12.596;2023-08-01T09:33:01;29.60;1.00
37281;DHT22;23169;41.804;12.596;2023-08-01T09:35:38;29.40;1.00
37281;DHT22;23169;41.804;12.596;2023-08-01T09:38:07;29.40;1.00
37281;DHT22;23169;41.804;12.596;2023-08-01T09:40:40;29.60;1.00
37281;DHT22;23169;41.804;12.596;2023-08-01T09:43:11;29.70;1.00
37281;DHT22;23169;41.804;12.596;2023-08-01T09:45:53;29.20;1.00
37281;DHT22;23169;41.804;12.596;2023-08-01T09:48:27;29.50;1.00
37281;DHT22;23169;41.804;12.596;2023-08-01T09:51:10;29.80;1.00
37281;DHT22;23169;41.804;12.596;2023-08-01T09:53:51;29.90;1.00
37281;DHT22;23169;41.804;12.596;2023-08-01T09:56:27;29.90;1.00
37281;DHT22;23169;41.804;12.596;2023-08-01T09:59:00;30.30;1.00
37281;DHT22;23169;41.804;12.596;2023-08-01T10:01:32;30.20;1.00
37281;DHT22;23169;41.804;12.596;2023-08-01T10:04:10;30.30;1.00
37281;DHT22;23169;41.804;12.596;2023-08-01T10:06:42;30.00;1.00
37281;DHT22;23169;41.804;12.596;2023-08-01T10:09:12;30.00;1.00
37281;DHT22;23169;41.804;12.596;2023-08-01T10:11:44;30.30;1.00
37281;DHT22;23169;41.804;12.596;2023-08-01T10:14:12;30.40;1.00
37281;DHT22;23169;41.804;12.596;2023-08-01T10:16:43;30.10;1.00
37281;DHT22;23169;41.804;12.596;2023-08-01T10:19:13;30.20;1.00
37281;DHT22;23169;41.804;12.596;2023-08-01T10:24:12;30.30;1.00
37281;DHT22;23169;41.804;12.596;2023-08-01T10:26:45;30.70;1.00
37281;DHT22;23169;41.804;12.596;2023-08-01T10:29:17;30.80;1.00
37281;DHT22;23169;41.804;12.596;2023-08-01T10:31:53;30.80;1.00
37281;DHT22;23169;41.804;12.596;2023-08-01T10:34:21;30.80;1.00
37281;DHT22;23169;41.804;12.596;2023-08-01T10:36:58;30.60;1.00
37281;DHT22;23169;41.804;12.596;2023-08-01T10:39:28;30.70;1.00
37281;DHT22;23169;41.804;12.596;2023-08-01T10:42:02;30.90;1.00
37281;DHT22;23169;41.804;12.596;2023-08-01T10:44:32;31.00;1.00
37281;DHT22;23169;41.804;12.596;2023-08-01T10:47:04;31.30;1.00
37281;DHT22;23169;41.804;12.596;2023-08-01T10:49:39;30.90;1.00
37281;DHT22;23169;41.804;12.596;2023-08-01T10:52:25;31.00;1.00
37281;DHT22;23169;41.804;12.596;2023-08-01T10:55:02;31.00;1.00
37281;DHT22;23169;41.804;12.596;2023-08-01T10:57:34;31.00;1.00
37281;DHT22;23169;41.804;12.596;2023-08-01T11:00:03;31.00;1.00
37281;DHT22;23169;41.804;12.596;2023-08-01T11:02:38;30.60;1.00
37281;DHT22;23169;41.804;12.596;2023-08-01T11:05:07;30.60;1.00
37281;DHT22;23169;41.804;12.596;2023-08-01T11:07:38;30.50;1.00
37281;DHT22;23169;41.804;12.596;2023-08-01T11:10:11;30.70;1.00
37281;DHT22;23169;41.804;12.596;2023-08-01T11:12:46;30.40;1.00
37281;DHT22;23169;41.804;12.596;2023-08-01T11:15:16;30.50;1.00
37281;DHT22;23169;41.804;12.596;2023-08-01T11:17:51;30.50;1.00
37281;DHT22;23169;41.804;12.596;2023-08-01T11:20:22;30.40;1.00
37281;DHT22;23169;41.804;12.596;2023-08-01T11:22:54;30.80;1.00
37281;DHT22;23169;41.804;12.596;2023-08-01T11:28:09;30.60;1.00
37281;DHT22;23169;41.804;12.596;2023-08-01T11:30:38;30.80;1.00
37281;DHT22;23169;41.804;12.596;2023-08-01T11:33:23;30.60;1.00
37281;DHT22;23169;41.804;12.596;2023-08-01T11:35:54;31.00;1.00
37281;DHT22;23169;41.804;12.596;2023-08-01T11:38:27;30.40;1.00
37281;DHT22;23169;41.804;12.596;2023-08-01T11:40:58;30.60;1.00
37281;DHT22;23169;41.804;12.596;2023-08-01T11:43:42;30.50;1.00
37281;DHT22;23169;41.804;12.596;2023-08-01T11:46:13;30.50;1.00
37281;DHT22;23169;41.804;12.596;2023-08-01T11:48:46;30.70;1.00
37281;DHT22;23169;41.804;12.596;2023-08-01T11:51:16;30.80;1.00
37281;DHT22;23169;41.804;12.596;2023-08-01T11:53:44;30.80;1.00
37281;DHT22;23169;41.804;12.596;2023-08-01T11:56:20;31.20;1.00
37281;DHT22;23169;41.804;12.596;2023-08-01T11:58:50;31.10;1.00
37281;DHT22;23169;41.804;12.596;2023-08-01T12:01:18;31.30;1.00
37281;DHT22;23169;41.804;12.596;2023-08-01T12:03:54;31.20;1.00
37281;DHT22;23169;41.804;12.596;2023-08-01T12:06:23;32.00;1.00
37281;DHT22;23169;41.804;12.596;2023-08-01T12:08:53;32.50;1.00
37281;DHT22;23169;41.804;12.596;2023-08-01T12:11:27;32.40;1.00
37281;DHT22;23169;41.804;12.596;2023-08-01T12:14:03;32.30;1.00
37281;DHT22;23169;41.804;12.596;2023-08-01T12:16:33;32.80;1.00
37281;DHT22;23169;41.804;12.596;2023-08-01T12:19:02;32.10;1.00
37281;DHT22;23169;41.804;12.596;2023-08-01T12:21:32;32.10;1.00
37281;DHT22;23169;41.804;12.596;2023-08-01T12:24:01;32.30;1.00
37281;DHT22;23169;41.804;12.596;2023-08-01T12:26:31;31.60;1.00
37281;DHT22;23169;41.804;12.596;2023-08-01T12:29:00;31.30;1.00
37281;DHT22;23169;41.804;12.596;2023-08-01T12:31:33;31.40;1.00
37281;DHT22;23169;41.804;12.596;2023-08-01T12:36:36;30.80;1.00
37281;DHT22;23169;41.804;12.596;2023-08-01T12:39:04;30.70;1.00
37281;DHT22;23169;41.804;12.596;2023-08-01T12:41:39;30.90;1.00
37281;DHT22;23169;41.804;12.596;2023-08-01T12:44:08;30.80;1.00
37281;DHT22;23169;41.804;12.596;2023-08-01T12:46:37;31.10;1.00
37281;DHT22;23169;41.804;12.596;2023-08-01T12:49:07;31.50;1.00
37281;DHT22;23169;41.804;12.596;2023-08-01T12:51:36;32.00;1.00
37281;DHT22;23169;41.804;12.596;2023-08-01T12:54:06;31.70;1.00
37281;DHT22;23169;41.804;12.596;2023-08-01T12:56:35;31.20;1.00
37281;DHT22;23169;41.804;12.596;2023-08-01T12:59:04;31.60;1.00
37281;DHT22;23169;41.804;12.596;2023-08-01T13:01:33;30.90;1.00
37281;DHT22;23169;41.804;12.596;2023-08-01T13:04:01;31.20;1.00
37281;DHT22;23169;41.804;12.596;2023-08-01T13:06:30;31.50;1.00
37281;DHT22;23169;41.804;12.596;2023-08-01T13:08:59;30.90;1.00
37281;DHT22;23169;41.804;12.596;2023-08-01T13:11:29;31.20;1.00
37281;DHT22;23169;41.804;12.596;2023-08-01T13:16:31;32.30;1.00
37281;DHT22;23169;41.804;12.596;2023-08-01T13:19:08;31.90;1.00
37281;DHT22;23169;41.804;12.596;2023-08-01T13:21:37;31.60;1.00
37281;DHT22;23169;41.804;12.596;2023-08-01T13:24:06;31.50;1.00
37281;DHT22;23169;41.804;12.596;2023-08-01T13:26:37;31.50;1.00
37281;DHT22;23169;41.804;12.596;2023-08-01T13:29:06;31.40;1.00
37281;DHT22;23169;41.804;12.596;2023-08-01T13:31:35;31.00;1.00
37281;DHT22;23169;41.804;12.596;2023-08-01T13:34:03;31.70;1.00
37281;DHT22;23169;41.804;12.596;2023-08-01T13:39:03;31.40;1.00
37281;DHT22;23169;41.804;12.596;2023-08-01T13:41:32;31.20;1.00
37281;DHT22;23169;41.804;12.596;2023-08-01T13:44:01;31.70;1.00
37281;DHT22;23169;41.804;12.596;2023-08-01T13:46:33;31.90;1.00
37281;DHT22;23169;41.804;12.596;2023-08-01T13:49:02;31.40;1.00
37281;DHT22;23169;41.804;12.596;2023-08-01T13:51:32;31.20;1.00
37281;DHT22;23169;41.804;12.596;2023-08-01T13:54:02;31.70;1.00
37281;DHT22;23169;41.804;12.596;2023-08-01T13:56:32;32.00;1.00
37281;DHT22;23169;41.804;12.596;2023-08-01T13:59:01;31.90;1.00
37281;DHT22;23169;41.804;12.596;2023-08-01T14:01:29;31.90;1.00
37281;DHT22;23169;41.804;12.596;2023-08-01T14:03:59;31.50;1.00
37281;DHT22;23169;41.804;12.596;2023-08-01T14:06:28;31.60;1.00
37281;DHT22;23169;41.804;12.596;2023-08-01T14:11:26;30.70;1.00
37281;DHT22;23169;41.804;12.596;2023-08-01T14:13:55;30.80;1.00
37281;DHT22;23169;41.804;12.596;2023-08-01T14:16:23;30.30;1.00
37281;DHT22;23169;41.804;12.596;2023-08-01T14:18:52;30.20;1.00
37281;DHT22;23169;41.804;12.596;2023-08-01T14:21:23;31.00;1.00
37281;DHT22;23169;41.804;12.596;2023-08-01T14:23:52;31.00;1.00
37281;DHT22;23169;41.804;12.596;2023-08-01T14:26:22;31.40;1.00
37281;DHT22;23169;41.804;12.596;2023-08-01T14:28:51;31.10;1.00
37281;DHT22;23169;41.804;12.596;2023-08-01T14:31:21;30.90;1.00
37281;DHT22;23169;41.804;12.596;2023-08-01T14:33:50;30.80;1.00
37281;DHT22;23169;41.804;12.596;2023-08-01T14:36:19;30.90;1.00
37281;DHT22;23169;41.804;12.596;2023-08-01T14:38:51;31.30;1.00
37281;DHT22;23169;41.804;12.596;2023-08-01T14:41:23;31.70;1.00
37281;DHT22;23169;41.804;12.596;2023-08-01T14:43:52;32.50;1.00
37281;DHT22;23169;41.804;12.596;2023-08-01T14:46:20;32.30;1.00
37281;DHT22;23169;41.804;12.596;2023-08-01T14:48:50;31.90;1.00
37281;DHT22;23169;41.804;12.596;2023-08-01T14:51:19;31.60;1.00
37281;DHT22;23169;41.804;12.596;2023-08-01T14:53:48;30.30;1.00
37281;DHT22;23169;41.804;12.596;2023-08-01T14:58:47;31.30;1.00
37281;DHT22;23169;41.804;12.596;2023-08-01T15:01:16;31.20;1.00
37281;DHT22;23169;41.804;12.596;2023-08-01T15:03:46;30.90;1.00
37281;DHT22;23169;41.804;12.596;2023-08-01T15:06:17;31.00;1.00
37281;DHT22;23169;41.804;12.596;2023-08-01T15:08:48;29.90;1.00
37281;DHT22;23169;41.804;12.596;2023-08-01T15:11:17;29.60;1.00
37281;DHT22;23169;41.804;12.596;2023-08-01T15:13:47;29.30;1.00
37281;DHT22;23169;41.804;12.596;2023-08-01T15:16:15;29.20;1.00
37281;DHT22;23169;41.804;12.596;2023-08-01T15:18:45;29.50;1.00
37281;DHT22;23169;41.804;12.596;2023-08-01T15:21:13;29.20;1.00
37281;DHT22;23169;41.804;12.596;2023-08-01T15:23:45;29.20;1.00
37281;DHT22;23169;41.804;12.596;2023-08-01T15:26:14;29.00;1.00
37281;DHT22;23169;41.804;12.596;2023-08-01T15:28:48;29.10;1.00
37281;DHT22;23169;41.804;12.596;2023-08-01T15:31:17;29.30;1.00
37281;DHT22;23169;41.804;12.596;2023-08-01T15:33:48;28.90;1.00
37281;DHT22;23169;41.804;12.596;2023-08-01T15:36:16;29.00;1.00
37281;DHT22;23169;41.804;12.596;2023-08-01T15:38:46;28.70;1.00
37281;DHT22;23169;41.804;12.596;2023-08-01T15:41:15;28.50;1.00
37281;DHT22;23169;41.804;12.596;2023-08-01T15:43:47;28.70;1.00
37281;DHT22;23169;41.804;12.596;2023-08-01T15:46:15;28.70;1.00
37281;DHT22;23169;41.804;12.596;2023-08-01T15:48:50;28.40;1.00
37281;DHT22;23169;41.804;12.596;2023-08-01T15:53:49;28.20;1.00
37281;DHT22;23169;41.804;12.596;2023-08-01T15:56:18;28.30;1.00
37281;DHT22;23169;41.804;12.596;2023-08-01T15:58:48;28.10;1.00
37281;DHT22;23169;41.804;12.596;2023-08-01T16:01:17;28.30;1.00
37281;DHT22;23169;41.804;12.596;2023-08-01T16:03:46;28.10;1.00
37281;DHT22;23169;41.804;12.596;2023-08-01T16:06:14;28.20;1.00
37281;DHT22;23169;41.804;12.596;2023-08-01T16:08:44;28.70;1.00
37281;DHT22;23169;41.804;12.596;2023-08-01T16:11:14;28.80;1.00
37281;DHT22;23169;41.804;12.596;2023-08-01T16:13:42;28.50;1.00
37281;DHT22;23169;41.804;12.596;2023-08-01T16:16:11;28.20;1.00
37281;DHT22;23169;41.804;12.596;2023-08-01T16:18:41;27.90;1.00
37281;DHT22;23169;41.804;12.596;2023-08-01T16:21:09;27.40;1.00
37281;DHT22;23169;41.804;12.596;2023-08-01T16:23:39;27.10;1.00
37281;DHT22;23169;41.804;12.596;2023-08-01T16:26:07;26.80;1.00
37281;DHT22;23169;41.804;12.596;2023-08-01T16:28:44;26.70;1.00
37281;DHT22;23169;41.804;12.596;2023-08-01T16:31:13;26.80;1.00